sensor_id;sensor_type;location;lat;lon;timestamp;pressure;altitude;pressure_sealevel;temperature;humidity
30338;BME280;17143;51.888;5.408;2023-07-08T00:13:03;101528.94;;;22.32;57.36
30338;BME280;17143;51.888;5.408;2023-07-08T00:28:08;101525.94;;;22.12;58.01
30338;BME280;17143;51.888;5.408;2023-07-08T00:43:11;101506.16;;;21.95;58.66
30338;BME280;17143;51.888;5.408;2023-07-08T00:58:13;101512.06;;;21.82;59.36
30338;BME280;17143;51.888;5.408;2023-07-08T01:13:16;101496.78;;;21.69;59.97
30338;BME280;17143;51.888;5.408;2023-07-08T01:28:19;101494.81;;;21.59;60.33
30338;BME280;17143;51.888;5.408;2023-07-08T01:43:22;101488.44;;;21.49;60.56
30338;BME280;17143;51.888;5.408;2023-07-08T01:58:25;101480.06;;;21.30;61.86
30338;BME280;17143;51.888;5.408;2023-07-08T02:13:27;101460.28;;;21.12;62.55
30338;BME280;17143;51.888;5.408;2023-07-08T02:28:29;101448.38;;;20.95;63.06
30338;BME280;17143;51.888;5.408;2023-07-08T02:43:31;101435.66;;;20.79;63.79
30338;BME280;17143;51.888;5.408;2023-07-08T02:58:33;101439.72;;;20.62;64.91
30338;BME280;17143;51.888;5.408;2023-07-08T03:13:35;101435.59;;;20.39;66.26
30338;BME280;17143;51.888;5.408;2023-07-08T03:28:37;101441.53;;;20.29;67.45
30338;BME280;17143;51.888;5.408;2023-07-08T03:43:39;101445.59;;;20.15;68.88
30338;BME280;17143;51.888;5.408;2023-07-08T03:58:42;101449.00;;;20.11;69.97
30338;BME280;17143;51.888;5.408;2023-07-08T04:13:45;101447.19;;;20.10;70.81
30338;BME280;17143;51.888;5.408;2023-07-08T04:28:47;101448.28;;;20.18;71.94
30338;BME280;17143;51.888;5.408;2023-07-08T04:43:49;101457.66;;;20.75;70.84
30338;BME280;17143;51.888;5.408;2023-07-08T04:58:51;101446.81;;;23.72;60.47
30338;BME280;17143;51.888;5.408;2023-07-08T05:13:53;101451.25;;;24.76;56.43
30338;BME280;17143;51.888;5.408;2023-07-08T05:28:55;101434.66;;;25.32;54.53
30338;BME280;17143;51.888;5.408;2023-07-08T05:43:57;101451.75;;;26.11;53.02
30338;BME280;17143;51.888;5.408;2023-07-08T05:58:59;101452.63;;;26.86;50.87
30338;BME280;17143;51.888;5.408;2023-07-08T06:14:01;101460.47;;;27.36;49.09
30338;BME280;17143;51.888;5.408;2023-07-08T06:29:04;101458.69;;;27.44;49.05
30338;BME280;17143;51.888;5.408;2023-07-08T06:44:06;101459.34;;;27.80;48.27
30338;BME280;17143;51.888;5.408;2023-07-08T06:59:09;101464.38;;;28.32;47.22
30338;BME280;17143;51.888;5.408;2023-07-08T07:14:11;101463.06;;;28.77;45.91
30338;BME280;17143;51.888;5.408;2023-07-08T07:29:15;101459.25;;;28.99;46.02
30338;BME280;17143;51.888;5.408;2023-07-08T07:44:18;101446.38;;;29.28;45.28
30338;BME280;17143;51.888;5.408;2023-07-08T07:59:20;101439.84;;;29.49;44.81
30338;BME280;17143;51.888;5.408;2023-07-08T08:14:22;101450.25;;;29.72;44.32
30338;BME280;17143;51.888;5.408;2023-07-08T08:29:24;101474.06;;;31.03;43.25
30338;BME280;17143;51.888;5.408;2023-07-08T08:44:31;101467.78;;;31.45;42.23
30338;BME280;17143;51.888;5.408;2023-07-08T08:59:38;101481.53;;;31.74;42.00
30338;BME280;17143;51.888;5.408;2023-07-08T09:14:43;101470.41;;;32.26;42.41
30338;BME280;17143;51.888;5.408;2023-07-08T09:29:45;101478.25;;;32.37;41.84
30338;BME280;17143;51.888;5.408;2023-07-08T09:44:47;101484.47;;;33.08;38.75
30338;BME280;17143;51.888;5.408;2023-07-08T09:59:53;101477.94;;;33.46;38.01
30338;BME280;17143;51.888;5.408;2023-07-08T10:15:00;101478.66;;;33.82;36.03
30338;BME280;17143;51.888;5.408;2023-07-08T10:30:19;101476.00;;;33.80;36.37
30338;BME280;17143;51.888;5.408;2023-07-08T10:45:26;101463.50;;;34.84;36.34
30338;BME280;17143;51.888;5.408;2023-07-08T11:00:36;101469.44;;;34.94;33.46
30338;BME280;17143;51.888;5.408;2023-07-08T11:15:45;101466.44;;;35.01;32.85
30338;BME280;17143;51.888;5.408;2023-07-08T11:30:50;101467.31;;;35.74;34.41
30338;BME280;17143;51.888;5.408;2023-07-08T11:45:56;101451.88;;;35.75;30.68
30338;BME280;17143;51.888;5.408;2023-07-08T12:01:01;101446.66;;;35.70;30.93
30338;BME280;17143;51.888;5.408;2023-07-08T12:16:08;101437.44;;;35.96;30.33
30338;BME280;17143;51.888;5.408;2023-07-08T12:31:15;101428.63;;;35.91;30.27
30338;BME280;17143;51.888;5.408;2023-07-08T12:46:19;101417.75;;;36.14;31.54
30338;BME280;17143;51.888;5.408;2023-07-08T13:01:24;101408.94;;;36.29;31.76
30338;BME280;17143;51.888;5.408;2023-07-08T13:16:30;101412.38;;;36.75;32.12
30338;BME280;17143;51.888;5.408;2023-07-08T13:31:34;101408.13;;;36.68;31.44
30338;BME280;17143;51.888;5.408;2023-07-08T13:46:39;101402.16;;;36.80;32.69
30338;BME280;17143;51.888;5.408;2023-07-08T14:01:43;101392.50;;;36.73;33.10
30338;BME280;17143;51.888;5.408;2023-07-08T14:16:47;101402.53;;;37.11;31.07
30338;BME280;17143;51.888;5.408;2023-07-08T14:31:50;101403.94;;;37.01;28.66
30338;BME280;17143;51.888;5.408;2023-07-08T14:46:52;101412.47;;;36.51;28.77
30338;BME280;17143;51.888;5.408;2023-07-08T15:01:56;101415.19;;;37.12;28.72
30338;BME280;17143;51.888;5.408;2023-07-08T15:16:59;101399.16;;;36.45;29.11
30338;BME280;17143;51.888;5.408;2023-07-08T15:32:01;101402.56;;;36.91;29.34
30338;BME280;17143;51.888;5.408;2023-07-08T15:47:03;101404.59;;;36.45;30.03
30338;BME280;17143;51.888;5.408;2023-07-08T16:02:24;101383.94;;;36.21;31.03
30338;BME280;17143;51.888;5.408;2023-07-08T16:17:36;101383.50;;;36.10;30.62
30338;BME280;17143;51.888;5.408;2023-07-08T16:32:38;101393.09;;;35.97;31.09
30338;BME280;17143;51.888;5.408;2023-07-08T16:47:41;101381.44;;;35.95;32.26
30338;BME280;17143;51.888;5.408;2023-07-08T17:02:44;101377.28;;;36.28;31.48
30338;BME280;17143;51.888;5.408;2023-07-08T17:17:50;101379.19;;;36.06;33.30
30338;BME280;17143;51.888;5.408;2023-07-08T17:32:53;101376.28;;;35.44;36.44
30338;BME280;17143;51.888;5.408;2023-07-08T17:47:55;101384.88;;;35.10;38.27
30338;BME280;17143;51.888;5.408;2023-07-08T18:02:58;101391.25;;;34.60;39.17
30338;BME280;17143;51.888;5.408;2023-07-08T18:18:01;101404.38;;;34.19;41.06
30338;BME280;17143;51.888;5.408;2023-07-08T18:33:10;101411.19;;;33.77;42.06
30338;BME280;17143;51.888;5.408;2023-07-08T18:48:14;101423.91;;;33.44;41.86
30338;BME280;17143;51.888;5.408;2023-07-08T19:03:20;101423.72;;;33.23;41.82
30338;BME280;17143;51.888;5.408;2023-07-08T19:18:23;101429.06;;;32.93;43.99
30338;BME280;17143;51.888;5.408;2023-07-08T19:33:25;101438.22;;;32.54;46.32
30338;BME280;17143;51.888;5.408;2023-07-08T19:48:27;101457.53;;;32.02;48.75
30338;BME280;17143;51.888;5.408;2023-07-08T20:03:29;101463.22;;;31.50;51.39
30338;BME280;17143;51.888;5.408;2023-07-08T20:18:32;101471.41;;;31.01;52.33
30338;BME280;17143;51.888;5.408;2023-07-08T20:33:35;101479.38;;;30.57;54.73
30338;BME280;17143;51.888;5.408;2023-07-08T20:48:37;101499.81;;;30.15;55.16
30338;BME280;17143;51.888;5.408;2023-07-08T21:03:41;101501.19;;;29.84;57.62
30338;BME280;17143;51.888;5.408;2023-07-08T21:18:44;101499.06;;;29.38;58.18
30338;BME280;17143;51.888;5.408;2023-07-08T21:33:46;101493.94;;;29.16;60.17
30338;BME280;17143;51.888;5.408;2023-07-08T21:48:48;101495.06;;;28.95;60.72
30338;BME280;17143;51.888;5.408;2023-07-08T22:03:50;101505.28;;;28.54;61.88
30338;BME280;17143;51.888;5.408;2023-07-08T22:18:53;101510.81;;;28.35;63.00
30338;BME280;17143;51.888;5.408;2023-07-08T22:33:55;101527.00;;;28.20;63.48
30338;BME280;17143;51.888;5.408;2023-07-08T22:48:57;101531.59;;;27.91;64.74
30338;BME280;17143;51.888;5.408;2023-07-08T23:03:59;101550.53;;;27.64;65.24
30338;BME280;17143;51.888;5.408;2023-07-08T23:19:01;101540.75;;;27.36;65.55
30338;BME280;17143;51.888;5.408;2023-07-08T23:34:03;101542.63;;;27.15;66.63
30338;BME280;17143;51.888;5.408;2023-07-08T23:49:17;101540.88;;;26.93;67.81
